Time;durP1;ratioP1;P1;durP2;ratioP2;P2;SDS_P1;SDS_P2;PMS_P1;PMS_P2;Temp;Humidity;BMP_temperature;BMP_pressure;BME280_temperature;BME280_humidity;BME280_pressure;Samples;Min_cycle;Max_cycle;Signal;HPM_P1;HPM_P2
2023/08/03 00:00:20;;;;;;;6.05;1.75;;;18.70;99.90;;;;;;10517835;28;20044;-38
2023/08/03 00:05:22;;;;;;;3.35;1.02;;;18.90;99.90;;;;;;10521525;28;20049;-40
2023/08/03 00:10:24;;;;;;;15.60;1.98;;;18.40;99.90;;;;;;10525945;28;20082;-38
2023/08/03 00:15:27;;;;;;;8.23;1.73;;;18.40;99.90;;;;;;10509286;28;20088;-37
2023/08/03 00:20:29;;;;;;;8.32;2.17;;;19.00;99.90;;;;;;10516120;28;20482;-33
2023/08/03 00:25:31;;;;;;;9.07;1.88;;;18.60;99.90;;;;;;10523672;28;20569;-36
2023/08/03 00:30:34;;;;;;;5.60;1.38;;;18.60;99.90;;;;;;10510231;28;20060;-38
2023/08/03 00:35:36;;;;;;;9.57;2.35;;;18.60;99.90;;;;;;10525904;28;20090;-41
2023/08/03 00:40:38;;;;;;;9.75;1.83;;;18.50;99.90;;;;;;10520451;28;20466;-37
2023/08/03 00:45:41;;;;;;;6.97;1.83;;;18.70;99.90;;;;;;10511962;28;20106;-36
2023/08/03 00:50:43;;;;;;;7.40;2.33;;;18.50;99.90;;;;;;10531475;28;20490;-40
2023/08/03 00:55:45;;;;;;;7.13;1.80;;;18.50;99.90;;;;;;10518028;28;20142;-31
2023/08/03 01:00:48;;;;;;;6.50;1.65;;;18.30;99.90;;;;;;10528189;28;20416;-40
2023/08/03 01:05:50;;;;;;;13.52;3.22;;;18.50;99.90;;;;;;10519146;28;20076;-34
2023/08/03 01:10:52;;;;;;;18.25;1.88;;;18.60;99.90;;;;;;10510492;28;20044;-41
2023/08/03 01:15:57;;;;;;;7.97;1.88;;;18.60;99.90;;;;;;10524883;28;20079;-35
2023/08/03 01:21:00;;;;;;;8.77;1.90;;;18.80;99.90;;;;;;10522785;28;20065;-39
2023/08/03 01:26:03;;;;;;;5.85;1.80;;;18.50;99.90;;;;;;10519212;28;20091;-34
2023/08/03 01:31:05;;;;;;;14.35;1.90;;;18.70;99.90;;;;;;10525602;28;20039;-41
2023/08/03 01:36:07;;;;;;;6.90;1.30;;;18.30;99.90;;;;;;10533039;28;20098;-40
2023/08/03 01:41:10;;;;;;;10.60;1.75;;;18.60;99.90;;;;;;10523085;28;20044;-37
2023/08/03 01:46:12;;;;;;;3.22;0.90;;;18.50;99.90;;;;;;10520196;28;20048;-36
2023/08/03 01:51:14;;;;;;;4.25;1.05;;;18.70;99.90;;;;;;10521893;28;20048;-38
2023/08/03 01:56:18;;;;;;;2.95;1.23;;;18.20;99.90;;;;;;10515452;28;20144;-34
2023/08/03 02:01:20;;;;;;;2.08;0.68;;;18.70;99.90;;;;;;10505667;28;20527;-37
2023/08/03 02:06:22;;;;;;;5.45;1.00;;;19.40;99.90;;;;;;10525511;28;20067;-36
2023/08/03 02:11:25;;;;;;;3.22;1.02;;;19.80;99.90;;;;;;10516268;28;20484;-37
2023/08/03 02:16:27;;;;;;;3.88;0.90;;;19.30;99.90;;;;;;10516795;28;20116;-35
2023/08/03 02:21:29;;;;;;;3.25;0.85;;;18.90;99.90;;;;;;10520667;28;20052;-34
2023/08/03 02:26:32;;;;;;;2.88;1.00;;;18.70;99.90;;;;;;10505303;28;20079;-37
2023/08/03 02:31:34;;;;;;;4.80;1.00;;;19.40;99.90;;;;;;10507975;28;20068;-35
2023/08/03 02:36:36;;;;;;;6.45;1.40;;;18.80;99.90;;;;;;10506404;28;20074;-36
2023/08/03 02:41:39;;;;;;;8.00;1.88;;;18.50;99.90;;;;;;10524882;28;20125;-36
2023/08/03 02:46:42;;;;;;;11.48;1.77;;;18.20;99.90;;;;;;10507514;28;20070;-44
2023/08/03 02:51:43;;;;;;;;;;;18.30;99.90;;;;;;10508676;28;20532;-37
2023/08/03 02:56:46;;;;;;;17.02;3.00;;;18.00;99.90;;;;;;10502244;28;19941;-36
2023/08/03 03:15:28;;;;;;;8.55;2.20;;;17.90;99.90;;;;;;10525651;27;1427789;-33
2023/08/03 03:20:30;;;;;;;10.65;1.95;;;17.70;99.90;;;;;;10543034;28;20047;-30
2023/08/03 03:25:32;;;;;;;10.80;1.60;;;18.00;99.90;;;;;;10547750;28;20538;-40
2023/08/03 03:30:35;;;;;;;5.15;1.20;;;18.00;99.90;;;;;;10554018;28;20485;-36
2023/08/03 03:35:37;;;;;;;6.57;1.70;;;17.90;99.90;;;;;;10547671;28;20123;-34
2023/08/03 03:40:39;;;;;;;8.05;1.83;;;17.90;99.90;;;;;;10551153;28;20040;-36
2023/08/03 03:45:42;;;;;;;12.20;2.73;;;18.00;99.90;;;;;;10554035;28;20044;-35
2023/08/03 03:50:44;;;;;;;17.35;3.15;;;18.00;99.90;;;;;;10544063;28;20495;-33
2023/08/03 03:55:46;;;;;;;26.52;3.85;;;18.10;99.90;;;;;;10549838;28;20052;-40
2023/08/03 04:00:49;;;;;;;20.58;2.75;;;17.90;99.90;;;;;;10546579;28;20045;-35
2023/08/03 04:05:51;;;;;;;16.70;2.55;;;17.50;99.90;;;;;;10549510;28;20503;-37
2023/08/03 04:10:52;;;;;;;12.35;2.75;;;17.40;99.90;;;;;;10561998;28;20056;-34
2023/08/03 04:15:56;;;;;;;26.40;3.80;;;17.60;99.90;;;;;;10547963;28;20074;-34
2023/08/03 04:20:57;;;;;;;14.10;2.30;;;18.40;99.90;;;;;;10552487;28;20547;-38
2023/08/03 04:26:00;;;;;;;15.73;2.85;;;17.80;99.90;;;;;;10532041;28;20044;-43
2023/08/03 04:31:03;;;;;;;28.60;3.40;;;17.60;99.90;;;;;;10526407;28;20059;-45
2023/08/03 04:36:05;;;;;;;14.65;2.42;;;17.60;99.90;;;;;;10518186;28;20531;-39
2023/08/03 04:41:07;;;;;;;8.93;1.90;;;17.60;99.90;;;;;;10520020;28;20044;-38
2023/08/03 04:46:10;;;;;;;14.80;2.22;;;18.10;99.90;;;;;;10519946;28;20041;-37
2023/08/03 04:51:12;;;;;;;7.25;1.95;;;17.60;99.90;;;;;;10521332;28;20138;-36
2023/08/03 04:56:14;;;;;;;21.53;2.83;;;18.00;99.90;;;;;;10516645;28;20165;-39
2023/08/03 05:01:17;;;;;;;12.43;2.07;;;17.80;99.90;;;;;;10513072;28;20774;-37
2023/08/03 05:06:19;;;;;;;19.52;2.88;;;17.50;99.90;;;;;;10521972;28;20501;-34
2023/08/03 05:11:21;;;;;;;13.07;2.30;;;17.40;99.90;;;;;;10518522;28;20153;-32
2023/08/03 05:16:24;;;;;;;20.17;2.57;;;17.20;99.90;;;;;;10520547;28;20888;-31
2023/08/03 05:21:26;;;;;;;23.13;2.80;;;17.40;99.90;;;;;;10510290;28;20073;-36
2023/08/03 05:26:28;;;;;;;8.10;1.87;;;17.60;99.90;;;;;;10506998;28;20548;-39
2023/08/03 05:31:31;;;;;;;14.40;2.23;;;17.70;99.90;;;;;;10511993;28;20562;-39
2023/08/03 05:36:33;;;;;;;17.38;2.92;;;17.60;99.90;;;;;;10515126;28;20040;-35
2023/08/03 05:41:35;;;;;;;17.73;2.10;;;17.50;99.90;;;;;;10501787;28;20502;-40
2023/08/03 05:46:38;;;;;;;24.48;2.92;;;17.90;99.90;;;;;;10510189;28;20052;-37
2023/08/03 05:51:40;;;;;;;22.27;3.38;;;17.60;99.90;;;;;;10511659;28;20213;-36
2023/08/03 05:56:42;;;;;;;19.30;2.92;;;18.10;99.90;;;;;;10514548;28;20058;-39
2023/08/03 06:01:47;;;;;;;;;;;17.90;99.90;;;;;;10515444;28;20645;-42
2023/08/03 06:06:49;;;;;;;29.13;3.58;;;17.70;99.90;;;;;;10506554;28;19955;-37
2023/08/03 06:11:52;;;;;;;14.55;2.30;;;17.80;99.90;;;;;;10514046;28;20079;-32
2023/08/03 06:16:56;;;;;;;25.63;2.70;;;17.80;99.90;;;;;;10501258;28;20072;-33
2023/08/03 06:22:02;;;;;;;14.98;2.38;;;17.80;99.90;;;;;;10506901;28;20052;-34
2023/08/03 06:27:05;;;;;;;23.38;3.08;;;18.50;99.90;;;;;;10503217;28;20454;-41
2023/08/03 06:32:22;;;;;;;8.35;1.85;;;18.40;99.90;;;;;;10509310;28;20130;-34
2023/08/03 06:37:24;;;;;;;17.23;2.03;;;19.00;99.90;;;;;;10504215;28;20154;-39
2023/08/03 06:42:25;;;;;;;14.88;2.13;;;18.80;99.90;;;;;;10508122;28;20649;-36
2023/08/03 06:47:29;;;;;;;3.83;1.48;;;18.60;99.90;;;;;;10512878;28;20048;-33
2023/08/03 06:52:31;;;;;;;7.13;1.17;;;19.00;99.90;;;;;;10505088;28;20075;-35
2023/08/03 06:57:33;;;;;;;7.85;2.00;;;18.90;99.90;;;;;;10514276;28;20071;-37
2023/08/03 07:02:36;;;;;;;9.82;1.98;;;19.20;99.90;;;;;;10507797;28;20570;-42
2023/08/03 07:07:38;;;;;;;5.32;1.55;;;18.70;99.90;;;;;;10513554;28;20094;-36
2023/08/03 07:12:40;;;;;;;10.68;1.95;;;18.90;99.90;;;;;;10502645;28;20076;-36
2023/08/03 07:17:43;;;;;;;12.15;1.83;;;19.10;99.90;;;;;;10505350;28;20127;-35
2023/08/03 07:22:45;;;;;;;10.43;2.03;;;18.70;99.90;;;;;;10518800;28;20489;-34
2023/08/03 07:27:47;;;;;;;7.80;2.17;;;19.80;99.90;;;;;;10509356;28;20040;-34
2023/08/03 07:32:51;;;;;;;17.48;2.30;;;19.40;99.90;;;;;;10504978;28;20106;-38
2023/08/03 07:37:53;;;;;;;18.88;2.63;;;19.30;99.90;;;;;;10511851;28;20051;-35
2023/08/03 07:42:54;;;;;;;25.10;3.15;;;19.30;99.90;;;;;;10506831;28;20056;-32
2023/08/03 07:47:57;;;;;;;29.75;2.78;;;19.40;99.90;;;;;;10510301;28;20087;-31
2023/08/03 07:52:59;;;;;;;21.77;3.25;;;19.30;99.90;;;;;;10498708;28;20040;-43
2023/08/03 07:58:01;;;;;;;17.60;2.50;;;19.70;99.90;;;;;;10514355;28;20489;-37
2023/08/03 08:03:05;;;;;;;33.13;3.97;;;19.30;99.90;;;;;;10524211;28;20095;-35
2023/08/03 08:08:06;;;;;;;25.15;2.90;;;19.40;99.90;;;;;;10518042;28;20113;-37
2023/08/03 08:13:08;;;;;;;33.40;3.55;;;19.30;99.90;;;;;;10518162;28;20404;-33
2023/08/03 08:18:11;;;;;;;24.25;4.93;;;19.10;99.90;;;;;;10508790;28;20067;-36
2023/08/03 08:23:13;;;;;;;12.93;2.42;;;19.80;99.90;;;;;;10516615;28;20549;-38
2023/08/03 08:28:15;;;;;;;20.17;3.78;;;20.00;99.90;;;;;;10513944;28;20354;-36
2023/08/03 08:33:19;;;;;;;14.30;2.28;;;20.00;99.90;;;;;;10524755;28;20055;-33
2023/08/03 08:38:21;;;;;;;15.05;2.72;;;20.50;99.90;;;;;;10518355;28;20755;-38
2023/08/03 08:43:23;;;;;;;;;;;20.80;99.90;;;;;;10523920;28;20158;-32
2023/08/03 08:48:26;;;;;;;15.80;3.10;;;20.80;99.90;;;;;;10517396;28;19920;-34
2023/08/03 08:53:28;;;;;;;4.82;1.15;;;20.60;99.90;;;;;;10514748;28;20044;-33
2023/08/03 08:58:30;;;;;;;8.57;2.75;;;20.60;99.90;;;;;;10515408;28;20556;-36
2023/08/03 09:03:49;;;;;;;8.52;1.55;;;20.60;99.90;;;;;;10509303;28;20078;-39
2023/08/03 09:08:54;;;;;;;12.70;1.98;;;21.00;99.90;;;;;;10520916;28;20113;-38
2023/08/03 09:13:56;;;;;;;15.05;2.20;;;20.70;99.90;;;;;;10511257;28;20060;-33
2023/08/03 09:18:59;;;;;;;15.85;1.88;;;20.80;99.90;;;;;;10503314;28;20119;-38
2023/08/03 09:24:16;;;;;;;14.27;1.40;;;20.40;99.90;;;;;;10527545;28;20131;-37
2023/08/03 09:29:19;;;;;;;12.20;1.83;;;20.80;99.90;;;;;;10520129;28;20036;-33
2023/08/03 09:34:22;;;;;;;8.88;1.25;;;20.40;99.90;;;;;;10518581;28;20135;-38
2023/08/03 09:39:24;;;;;;;14.75;2.28;;;21.00;99.90;;;;;;10505488;28;20476;-32
2023/08/03 09:44:28;;;;;;;19.48;3.03;;;20.00;99.90;;;;;;10512173;28;20067;-33
2023/08/03 09:49:32;;;;;;;13.35;2.22;;;19.40;99.90;;;;;;10512838;28;20081;-33
2023/08/03 09:54:38;;;;;;;24.25;4.07;;;19.40;99.90;;;;;;10499486;28;20052;-38
2023/08/03 09:59:45;;;;;;;18.73;2.70;;;18.70;99.90;;;;;;10511682;28;20041;-36
2023/08/03 10:04:52;;;;;;;13.93;3.33;;;19.80;99.90;;;;;;10503923;28;20083;-37
2023/08/03 10:09:57;;;;;;;25.85;4.15;;;19.60;99.90;;;;;;10500201;28;20096;-39
2023/08/03 10:15:01;;;;;;;14.30;3.28;;;18.20;99.90;;;;;;10502230;28;20060;-38
2023/08/03 10:20:05;;;;;;;25.58;3.83;;;18.60;99.90;;;;;;10503806;28;20093;-37
2023/08/03 10:25:17;;;;;;;20.70;2.92;;;18.80;99.90;;;;;;10513385;28;20113;-35
2023/08/03 10:30:19;;;;;;;20.70;3.60;;;18.80;99.90;;;;;;10520832;28;20412;-36
2023/08/03 10:35:39;;;;;;;28.38;4.38;;;18.80;99.90;;;;;;10515421;28;20068;-36
2023/08/03 10:40:41;;;;;;;25.85;3.90;;;18.70;99.90;;;;;;10517765;28;20079;-35
2023/08/03 10:45:43;;;;;;;21.58;3.42;;;18.10;99.90;;;;;;10520479;28;20136;-36
2023/08/03 10:51:01;;;;;;;12.40;3.10;;;19.00;99.90;;;;;;10525871;28;20138;-35
2023/08/03 10:56:09;;;;;;;16.92;2.90;;;19.50;99.90;;;;;;10524240;28;20052;-38
2023/08/03 11:01:14;;;;;;;19.67;3.17;;;19.20;99.90;;;;;;10521460;28;20105;-37
2023/08/03 11:06:18;;;;;;;17.08;2.60;;;19.40;99.90;;;;;;10507127;28;20045;-35
2023/08/03 11:11:23;;;;;;;12.20;2.35;;;18.90;99.90;;;;;;10513407;28;20072;-41
2023/08/03 11:16:26;;;;;;;15.80;2.50;;;19.90;99.90;;;;;;10523771;28;20480;-38
2023/08/03 11:21:29;;;;;;;11.18;2.08;;;19.90;99.90;;;;;;10508850;28;20155;-33
2023/08/03 11:26:32;;;;;;;17.80;3.53;;;19.90;99.90;;;;;;10518985;28;20070;-38
2023/08/03 11:31:34;;;;;;;7.95;1.90;;;19.30;99.90;;;;;;10509727;28;20156;-32
2023/08/03 11:36:37;;;;;;;15.70;2.35;;;19.60;99.90;;;;;;10514969;28;20052;-33
2023/08/03 11:41:39;;;;;;;8.35;1.60;;;19.50;99.90;;;;;;10527555;28;20147;-35
2023/08/03 11:46:41;;;;;;;;;;;19.90;99.90;;;;;;10516475;28;20348;-37
2023/08/03 11:51:48;;;;;;;15.43;2.43;;;19.70;99.90;;;;;;10512200;28;19924;-40
2023/08/03 11:56:50;;;;;;;13.30;2.10;;;20.00;99.90;;;;;;10518541;28;20712;-33
2023/08/03 12:01:52;;;;;;;6.60;2.20;;;20.10;99.90;;;;;;10509630;28;20067;-36
2023/08/03 12:06:56;;;;;;;8.27;2.42;;;19.30;99.90;;;;;;10511579;28;20161;-38
2023/08/03 12:12:01;;;;;;;14.68;3.13;;;20.10;99.90;;;;;;10519081;28;20086;-33
2023/08/03 12:17:05;;;;;;;9.05;1.83;;;19.80;99.90;;;;;;10507668;28;20431;-33
2023/08/03 12:22:08;;;;;;;9.15;1.95;;;20.80;99.90;;;;;;10525028;28;20105;-35
2023/08/03 12:27:10;;;;;;;10.32;1.98;;;20.20;99.90;;;;;;10512627;28;20527;-33
2023/08/03 12:32:13;;;;;;;19.27;3.33;;;20.40;99.90;;;;;;10517226;28;20130;-42
2023/08/03 12:37:16;;;;;;;9.40;1.38;;;20.10;99.90;;;;;;10513385;28;20558;-36
2023/08/03 12:42:18;;;;;;;7.50;1.75;;;20.50;99.90;;;;;;10525486;28;20044;-32
2023/08/03 12:47:19;;;;;;;14.60;1.95;;;20.80;99.90;;;;;;10512399;28;20090;-35
2023/08/03 12:52:23;;;;;;;15.55;2.65;;;20.60;99.90;;;;;;10509607;28;20097;-36
2023/08/03 12:57:26;;;;;;;14.10;2.47;;;19.70;99.90;;;;;;10519576;28;20079;-35
2023/08/03 13:02:28;;;;;;;6.75;1.33;;;19.80;99.90;;;;;;10507297;28;20147;-34
2023/08/03 13:07:31;;;;;;;7.25;1.80;;;21.60;99.90;;;;;;10519451;28;20734;-39
2023/08/03 13:12:33;;;;;;;5.57;1.80;;;20.90;99.90;;;;;;10513756;28;20129;-37
2023/08/03 13:17:34;;;;;;;7.05;1.25;;;20.70;99.90;;;;;;10509045;28;20070;-39
2023/08/03 13:22:38;;;;;;;17.83;2.20;;;21.60;99.90;;;;;;10515150;28;20072;-42
2023/08/03 13:27:40;;;;;;;8.95;1.48;;;20.50;99.90;;;;;;10526274;28;20059;-37
2023/08/03 13:32:44;;;;;;;11.48;2.05;;;20.70;99.90;;;;;;10506220;28;20063;-37
2023/08/03 13:37:47;;;;;;;9.07;1.52;;;21.70;99.90;;;;;;10512995;28;20504;-37
2023/08/03 13:42:49;;;;;;;7.22;1.48;;;21.40;99.50;;;;;;10520722;28;20087;-35
2023/08/03 13:47:51;;;;;;;8.10;1.67;;;22.30;99.90;;;;;;10503703;28;20143;-38
2023/08/03 13:52:54;;;;;;;10.27;1.90;;;22.00;99.10;;;;;;10511853;28;20048;-35
2023/08/03 13:57:56;;;;;;;7.43;1.15;;;21.80;99.10;;;;;;10505637;28;20044;-37
2023/08/03 14:02:59;;;;;;;6.00;1.85;;;22.00;99.90;;;;;;10518127;28;20134;-37
2023/08/03 14:08:03;;;;;;;8.57;1.45;;;22.20;98.80;;;;;;10510121;28;20044;-38
2023/08/03 14:13:04;;;;;;;5.93;1.23;;;22.50;94.90;;;;;;10522103;28;20575;-37
2023/08/03 14:18:07;;;;;;;10.32;1.95;;;22.10;96.80;;;;;;10508858;28;20093;-42
2023/08/03 14:23:10;;;;;;;;;;;22.50;99.20;;;;;;10518819;28;20052;-34
2023/08/03 14:28:11;;;;;;;16.20;2.72;;;22.50;99.80;;;;;;10519891;28;19985;-34
2023/08/03 14:33:13;;;;;;;6.40;1.33;;;22.50;97.50;;;;;;10503465;28;20552;-35
2023/08/03 14:38:16;;;;;;;7.95;1.70;;;21.50;97.90;;;;;;10500524;28;20082;-36
2023/08/03 14:43:18;;;;;;;10.60;1.63;;;22.10;98.40;;;;;;10522850;28;20052;-35
2023/08/03 14:48:20;;;;;;;8.88;1.58;;;21.40;99.90;;;;;;10514833;28;20432;-39
2023/08/03 14:53:24;;;;;;;6.82;1.60;;;22.00;97.30;;;;;;10511676;28;20051;-35
2023/08/03 14:58:25;;;;;;;6.65;1.33;;;21.50;97.20;;;;;;10515339;28;20670;-36
2023/08/03 15:03:27;;;;;;;11.10;1.45;;;22.70;98.60;;;;;;10501273;28;20044;-38
2023/08/03 15:08:30;;;;;;;11.73;2.15;;;22.40;96.60;;;;;;10518528;28;20051;-36
2023/08/03 15:13:32;;;;;;;12.15;1.48;;;21.30;97.00;;;;;;10519340;28;20076;-36
2023/08/03 15:18:34;;;;;;;12.45;1.50;;;21.70;97.90;;;;;;10513672;28;20047;-45
2023/08/03 15:23:37;;;;;;;7.95;1.88;;;21.10;98.10;;;;;;10514061;28;20082;-43
2023/08/03 15:28:39;;;;;;;5.70;1.10;;;21.50;96.40;;;;;;10497015;28;20080;-41
2023/08/03 15:33:41;;;;;;;11.88;1.42;;;20.80;99.90;;;;;;10510121;28;20146;-37
2023/08/03 15:38:48;;;;;;;4.53;1.13;;;22.00;95.40;;;;;;10508577;28;20188;-38
2023/08/03 15:43:50;;;;;;;9.98;1.52;;;22.80;96.50;;;;;;10498658;28;20051;-34
2023/08/03 15:48:53;;;;;;;8.95;1.15;;;22.50;96.60;;;;;;10506937;28;20477;-34
2023/08/03 15:53:58;;;;;;;5.88;1.10;;;22.90;94.50;;;;;;10498314;28;20138;-35
2023/08/03 15:59:00;;;;;;;9.55;1.40;;;22.40;96.30;;;;;;10508693;28;20056;-38
2023/08/03 16:04:02;;;;;;;7.25;2.13;;;22.80;94.40;;;;;;10508090;28;20476;-39
2023/08/03 16:09:05;;;;;;;7.68;1.48;;;22.80;94.10;;;;;;10514737;28;20443;-41
2023/08/03 16:14:07;;;;;;;12.60;1.50;;;22.90;95.20;;;;;;10495902;28;20053;-36
2023/08/03 16:19:09;;;;;;;5.53;1.30;;;23.10;94.10;;;;;;10506346;28;20303;-38
2023/08/03 16:24:12;;;;;;;4.93;1.70;;;23.60;92.40;;;;;;10506608;28;20135;-42
2023/08/03 16:29:14;;;;;;;12.30;1.88;;;23.80;86.40;;;;;;10508736;28;20045;-38
2023/08/03 16:34:15;;;;;;;;;;;22.80;91.10;;;;;;10494451;28;20481;-37
2023/08/03 16:39:19;;;;;;;5.57;1.47;;;23.10;94.00;;;;;;10517315;28;20404;-36
2023/08/03 16:44:20;;;;;;;9.10;1.83;;;23.10;93.50;;;;;;10515137;28;20076;-38
2023/08/03 16:49:22;;;;;;;9.40;1.52;;;22.50;94.00;;;;;;10512925;28;20052;-37
2023/08/03 16:54:26;;;;;;;6.78;1.95;;;22.40;96.10;;;;;;10500831;28;20045;-33
2023/08/03 16:59:28;;;;;;;8.27;1.40;;;23.10;94.30;;;;;;10512565;28;20051;-38
2023/08/03 17:04:29;;;;;;;;;;;23.10;93.90;;;;;;10511054;28;20048;-38
2023/08/03 17:09:33;;;;;;;8.53;1.97;;;23.70;93.00;;;;;;10501497;28;19971;-41
2023/08/03 17:14:36;;;;;;;10.02;1.58;;;23.50;92.80;;;;;;10520473;28;20420;-35
2023/08/03 17:19:38;;;;;;;6.28;1.60;;;22.80;93.90;;;;;;10519446;28;20697;-45
2023/08/03 17:24:42;;;;;;;8.27;1.20;;;22.80;95.80;;;;;;10511282;28;20593;-37
2023/08/03 17:29:44;;;;;;;7.82;1.63;;;23.10;94.40;;;;;;10514213;28;20543;-37
2023/08/03 17:34:45;;;;;;;;;;;23.00;94.30;;;;;;10510909;28;20115;-36
2023/08/03 17:39:50;;;;;;;8.33;1.70;;;23.10;93.50;;;;;;10508182;28;19927;-36
2023/08/03 17:44:52;;;;;;;6.05;1.30;;;22.90;94.00;;;;;;10520537;28;20044;-41
2023/08/03 17:49:56;;;;;;;6.70;2.17;;;23.00;95.10;;;;;;10525111;28;20512;-35
2023/08/03 17:54:59;;;;;;;8.73;1.77;;;22.60;94.40;;;;;;10507979;28;20124;-35
2023/08/03 18:00:01;;;;;;;8.07;2.30;;;22.80;94.50;;;;;;10514849;28;20047;-37
2023/08/03 18:05:03;;;;;;;11.68;2.65;;;23.00;93.80;;;;;;10519008;28;20102;-38
2023/08/03 18:10:07;;;;;;;9.45;2.08;;;22.80;93.50;;;;;;10512497;28;20063;-35
2023/08/03 18:15:10;;;;;;;14.23;2.35;;;23.10;93.20;;;;;;10506822;28;20110;-37
2023/08/03 18:20:12;;;;;;;10.60;3.47;;;22.70;94.90;;;;;;10502247;28;20114;-40
2023/08/03 18:25:15;;;;;;;10.50;3.00;;;22.10;97.40;;;;;;10514168;28;20544;-35
2023/08/03 18:30:17;;;;;;;17.38;2.80;;;23.20;93.20;;;;;;10516827;28;20047;-43
2023/08/03 18:35:19;;;;;;;9.60;2.72;;;21.90;97.90;;;;;;10507637;28;20039;-32
2023/08/03 18:40:22;;;;;;;;;;;23.10;94.60;;;;;;10519867;28;20118;-45
2023/08/03 18:45:25;;;;;;;10.40;2.08;;;22.90;90.70;;;;;;10508320;28;19960;-32
2023/08/03 18:50:27;;;;;;;9.68;2.38;;;23.50;92.50;;;;;;10507396;28;20047;-33
2023/08/03 18:55:30;;;;;;;5.45;2.33;;;22.60;95.00;;;;;;10512717;28;20056;-36
2023/08/03 19:00:32;;;;;;;12.18;3.22;;;22.60;96.60;;;;;;10517338;28;20079;-43
2023/08/03 19:05:34;;;;;;;8.40;2.15;;;22.80;93.70;;;;;;10510623;28;20105;-41
2023/08/03 19:10:37;;;;;;;;;;;23.10;93.60;;;;;;10501706;28;20040;-37
2023/08/03 19:15:40;;;;;;;8.30;2.10;;;22.60;95.20;;;;;;10522452;28;19919;-36
2023/08/03 19:20:42;;;;;;;6.40;2.40;;;23.20;94.70;;;;;;10512370;28;20127;-35
2023/08/03 19:25:47;;;;;;;12.05;2.58;;;23.00;93.60;;;;;;10507847;28;20044;-37
2023/08/03 19:30:48;;;;;;;6.60;2.38;;;22.10;96.40;;;;;;10504386;28;20071;-35
2023/08/03 19:35:50;;;;;;;16.08;2.45;;;22.40;94.40;;;;;;10496897;28;20135;-36
2023/08/03 19:40:54;;;;;;;7.38;1.75;;;23.40;93.40;;;;;;10504496;28;20137;-36
2023/08/03 19:45:56;;;;;;;12.63;2.85;;;22.80;95.70;;;;;;10503396;28;20040;-39
2023/08/03 19:50:58;;;;;;;7.78;2.20;;;23.00;94.10;;;;;;10507212;28;20064;-38
2023/08/03 19:56:01;;;;;;;;;;;23.00;94.50;;;;;;10517519;28;20546;-39
2023/08/03 20:01:05;;;;;;;8.77;2.03;;;22.50;91.80;;;;;;10516302;28;19920;-39
2023/08/03 20:06:06;;;;;;;11.80;2.42;;;23.10;94.50;;;;;;10520981;28;20051;-37
2023/08/03 20:11:10;;;;;;;5.88;1.58;;;22.60;94.10;;;;;;10508401;28;20060;-34
2023/08/03 20:16:12;;;;;;;12.10;2.30;;;22.70;95.30;;;;;;10511577;28;20497;-39
2023/08/03 20:21:14;;;;;;;6.43;2.00;;;22.50;95.40;;;;;;10507207;28;20094;-38
2023/08/03 20:26:17;;;;;;;8.75;2.50;;;23.50;91.20;;;;;;10513069;28;20636;-36
2023/08/03 20:31:19;;;;;;;7.07;2.05;;;23.10;91.80;;;;;;10511163;28;20037;-39
2023/08/03 20:36:21;;;;;;;11.32;1.98;;;22.90;94.70;;;;;;10519347;28;20105;-44
2023/08/03 20:41:25;;;;;;;5.95;1.70;;;22.50;94.50;;;;;;10510357;28;20049;-33
2023/08/03 20:46:28;;;;;;;7.82;2.10;;;22.30;92.30;;;;;;10509707;28;20105;-36
2023/08/03 20:51:29;;;;;;;5.82;1.60;;;22.60;94.90;;;;;;10505151;28;20578;-33
2023/08/03 20:56:32;;;;;;;6.10;1.83;;;22.80;94.80;;;;;;10506150;28;20153;-41
2023/08/03 21:01:36;;;;;;;7.38;2.20;;;23.10;94.10;;;;;;10505849;28;20048;-33
2023/08/03 21:06:38;;;;;;;14.82;2.63;;;22.60;94.50;;;;;;10517829;28;20049;-39
2023/08/03 21:11:41;;;;;;;21.33;3.20;;;21.50;95.00;;;;;;10523730;28;20501;-38
2023/08/03 21:16:43;;;;;;;7.15;1.90;;;21.80;97.20;;;;;;10505937;28;20542;-39
2023/08/03 21:21:45;;;;;;;9.00;1.85;;;22.00;96.10;;;;;;10506541;28;20079;-34
2023/08/03 21:26:48;;;;;;;6.13;1.23;;;21.70;98.20;;;;;;10514223;28;20409;-41
2023/08/03 21:31:50;;;;;;;8.73;1.58;;;23.10;94.00;;;;;;10519579;28;20044;-35
2023/08/03 21:36:52;;;;;;;;;;;22.90;94.10;;;;;;10517106;28;20113;-42
2023/08/03 21:41:55;;;;;;;3.00;1.33;;;22.90;94.60;;;;;;10518645;28;19928;-43
2023/08/03 21:46:57;;;;;;;4.35;1.35;;;23.30;91.50;;;;;;10490858;28;20049;-34
2023/08/03 21:51:59;;;;;;;3.25;1.55;;;22.90;93.90;;;;;;10506562;28;20121;-34
2023/08/03 21:57:02;;;;;;;;;;;22.50;93.30;;;;;;10505212;28;20040;-41
2023/08/03 22:02:04;;;;;;;6.07;1.73;;;22.70;94.40;;;;;;10498694;28;19920;-41
2023/08/03 22:07:06;;;;;;;12.43;3.97;;;22.50;94.80;;;;;;10513111;28;20738;-39
2023/08/03 22:12:10;;;;;;;;;;;22.40;95.50;;;;;;10511520;28;20076;-39
2023/08/03 22:17:12;;;;;;;6.75;1.73;;;22.80;94.70;;;;;;10494845;28;19924;-35
2023/08/03 22:22:13;;;;;;;5.13;1.50;;;22.40;95.20;;;;;;10504010;28;20068;-38
2023/08/03 22:27:17;;;;;;;5.97;1.65;;;22.20;96.00;;;;;;10503424;28;20040;-37
2023/08/03 22:32:19;;;;;;;6.10;1.77;;;21.70;98.60;;;;;;10516159;28;20067;-43
2023/08/03 22:37:20;;;;;;;4.32;1.17;;;22.80;93.70;;;;;;10507374;28;20040;-38
2023/08/03 22:42:24;;;;;;;6.60;1.55;;;22.80;94.40;;;;;;10512080;28;20492;-40
2023/08/03 22:47:25;;;;;;;5.03;2.08;;;22.00;97.30;;;;;;10516831;28;20067;-36
2023/08/03 22:52:27;;;;;;;11.70;1.40;;;22.00;97.00;;;;;;10510140;28;20040;-35
2023/08/03 22:57:30;;;;;;;5.45;1.83;;;22.30;94.90;;;;;;10514876;28;20044;-35
2023/08/03 23:02:32;;;;;;;8.98;1.75;;;21.60;98.10;;;;;;10521563;28;20044;-40
2023/08/03 23:07:35;;;;;;;4.70;1.20;;;22.40;95.10;;;;;;10520086;28;20833;-39
2023/08/03 23:12:39;;;;;;;5.30;1.48;;;22.10;95.90;;;;;;10517399;28;20083;-36
2023/08/03 23:17:40;;;;;;;3.75;1.08;;;21.40;98.90;;;;;;10511318;28;20503;-38
2023/08/03 23:22:42;;;;;;;4.47;0.95;;;21.40;99.50;;;;;;10517278;28;20097;-38
2023/08/03 23:27:48;;;;;;;7.45;1.50;;;22.30;95.60;;;;;;10510404;28;20151;-39
2023/08/03 23:32:50;;;;;;;3.22;1.42;;;21.30;97.80;;;;;;10507494;28;20072;-39
2023/08/03 23:37:52;;;;;;;3.60;1.20;;;21.70;97.40;;;;;;10509127;28;20114;-36
2023/08/03 23:42:55;;;;;;;5.32;1.33;;;22.30;95.90;;;;;;10509988;28;20048;-42
2023/08/03 23:47:57;;;;;;;8.52;1.40;;;21.90;96.90;;;;;;10511228;28;20044;-35
2023/08/03 23:52:59;;;;;;;6.40;1.48;;;22.10;94.20;;;;;;10506323;28;20044;-31
2023/08/03 23:58:02;;;;;;;4.20;1.40;;;21.20;98.10;;;;;;10521165;28;20167;-34
